Terminal Aerodrome Forecast
Issued by NWS

Home | Current Version | Previous Version | Text Only | Print | Product List | Glossary On
Versions: 1 2 3 4 5 6 7 8 9 10 11 12 13 14 15
000
FTUS43 KEAX 290554 CCA
TAFSTJ
TAF COR
KSTJ 290554Z 2906/3006 01015KT 4SM -TSRA BR BKN015CB
     FM290800 36008KT P6SM VCTS SCT020 BKN050CB
     FM291000 35007KT P6SM SCT050 BKN080=

USA.gov is the U.S. government's official web portal to all federal, state and local government web resources and services.